createdAt,value
2023-01-13T00:00:58.058Z,87.44
2023-01-13T00:04:01.064Z,87.25
2023-01-13T00:07:03.486Z,87.33
2023-01-13T00:10:11.182Z,87.38
2023-01-13T00:13:15.205Z,87.58
2023-01-13T00:16:18.473Z,87.31
2023-01-13T00:19:21.146Z,88.51
2023-01-13T00:22:23.469Z,88.36
2023-01-13T00:25:26.067Z,88.16
2023-01-13T00:28:29.321Z,88.94
2023-01-13T00:31:32.009Z,89.07
2023-01-13T00:34:34.397Z,88.45
2023-01-13T00:37:37.906Z,88.62
2023-01-13T00:40:40.202Z,87.74
2023-01-13T00:43:43.056Z,87.06
2023-01-13T00:46:45.474Z,87.92
2023-01-13T00:49:47.787Z,87.83
2023-01-13T00:52:50.059Z,87.97
2023-01-13T00:56:03.627Z,88.24
2023-01-13T00:59:06.295Z,88.06
2023-01-13T01:02:08.827Z,88.55
2023-01-13T01:05:11.330Z,88.53
2023-01-13T01:08:13.702Z,88.28
2023-01-13T01:11:20.793Z,88.17
2023-01-13T01:14:23.185Z,87.52
2023-01-13T01:17:25.519Z,88.50
2023-01-13T01:20:30.057Z,88.73
2023-01-13T01:23:33.809Z,88.77
2023-01-13T01:26:36.216Z,88.90
2023-01-13T01:29:38.567Z,89.55
2023-01-13T01:32:40.888Z,89.22
2023-01-13T01:35:43.238Z,89.41
2023-01-13T01:38:47.080Z,89.09
2023-01-13T01:42:07.967Z,89.10
2023-01-13T01:45:24.237Z,89.08
2023-01-13T01:48:29.230Z,88.91
2023-01-13T01:51:35.748Z,88.74
2023-01-13T01:54:49.429Z,89.64
2023-01-13T01:58:12.640Z,89.87
2023-01-13T02:01:16.387Z,89.29
2023-01-13T02:04:25.063Z,89.57
2023-01-13T02:07:30.778Z,89.77
2023-01-13T02:10:33.535Z,90.14
2023-01-13T02:13:35.844Z,89.66
2023-01-13T02:16:44.964Z,89.97
2023-01-13T02:20:25.625Z,89.94
2023-01-13T02:24:30.317Z,89.63
2023-01-13T02:28:17.116Z,89.64
2023-01-13T02:31:38.708Z,89.90
2023-01-13T02:34:51.891Z,90.10
2023-01-13T02:37:56.807Z,90.35
2023-01-13T02:41:42.101Z,90.04
2023-01-13T02:44:52.182Z,89.93
2023-01-13T02:47:57.642Z,90.26
2023-01-13T02:51:05.958Z,90.02
2023-01-13T02:54:20.406Z,89.71
2023-01-13T02:57:25.738Z,89.60
2023-01-13T03:00:29.338Z,89.35
2023-01-13T03:03:31.762Z,89.34
2023-01-13T03:06:40.989Z,89.19
2023-01-13T03:09:51.651Z,88.87
2023-01-13T03:13:30.273Z,88.41
2023-01-13T03:16:53.780Z,88.34
2023-01-13T03:20:13.488Z,88.26
2023-01-13T03:23:24.684Z,87.29
2023-01-13T03:26:35.733Z,87.73
2023-01-13T03:29:45.536Z,87.65
2023-01-13T03:32:54.205Z,88.11
2023-01-13T03:36:02.172Z,88.31
2023-01-13T03:39:12.309Z,87.67
2023-01-13T03:42:20.890Z,88.07
2023-01-13T03:45:23.504Z,88.65
2023-01-13T03:48:29.462Z,89.00
2023-01-13T03:51:34.911Z,88.35
2023-01-13T03:54:45.289Z,88.18
2023-01-13T03:58:14.446Z,88.48
2023-01-13T04:01:32.054Z,88.44
2023-01-13T04:04:41.398Z,87.85
2023-01-13T04:07:50.115Z,88.50
2023-01-13T04:11:03.435Z,89.21
2023-01-13T04:14:09.217Z,89.00
2023-01-13T04:17:12.032Z,89.02
2023-01-13T04:20:14.734Z,88.99
2023-01-13T04:23:18.663Z,89.39
2023-01-13T04:26:23.386Z,89.76
2023-01-13T04:29:26.661Z,90.10
2023-01-13T04:32:29.064Z,90.08
2023-01-13T04:35:32.935Z,90.33
2023-01-13T04:38:35.333Z,90.17
2023-01-13T04:41:56.656Z,88.92
2023-01-13T04:44:59.141Z,89.77
2023-01-13T04:48:01.626Z,89.88
2023-01-13T04:51:04.122Z,89.83
2023-01-13T04:54:06.580Z,90.34
2023-01-13T04:57:09.057Z,89.88
2023-01-13T05:00:15.293Z,89.25
2023-01-13T05:03:18.699Z,89.67
2023-01-13T05:06:21.023Z,90.76
2023-01-13T05:09:23.490Z,89.73
2023-01-13T05:12:44.755Z,88.92
2023-01-13T05:16:06.811Z,88.63
2023-01-13T05:19:09.500Z,89.57
2023-01-13T05:22:30.146Z,89.20
2023-01-13T05:25:35.396Z,89.34
2023-01-13T05:28:37.788Z,90.22
2023-01-13T05:31:40.290Z,89.89
2023-01-13T05:34:42.612Z,90.58
2023-01-13T05:37:46.153Z,90.54
2023-01-13T05:41:08.321Z,89.84
2023-01-13T05:44:10.837Z,89.39
2023-01-13T05:47:13.238Z,89.30
2023-01-13T05:50:16.328Z,89.93
2023-01-13T05:53:18.972Z,89.89
2023-01-13T05:56:21.383Z,89.36
2023-01-13T05:59:23.773Z,89.68
2023-01-13T06:02:26.726Z,89.68
2023-01-13T06:05:29.522Z,89.08
2023-01-13T06:08:32.809Z,89.32
2023-01-13T06:11:35.317Z,89.77
2023-01-13T06:14:40.281Z,90.36
2023-01-13T06:17:42.849Z,90.22
2023-01-13T06:20:47.086Z,90.52
2023-01-13T06:23:49.533Z,90.03
2023-01-13T06:26:51.885Z,89.58
2023-01-13T06:29:54.584Z,89.85
2023-01-13T06:33:00.758Z,89.14
2023-01-13T06:36:11.187Z,90.12
2023-01-13T06:39:20.233Z,89.96
2023-01-13T06:42:40.950Z,89.58
2023-01-13T06:45:53.468Z,89.66
2023-01-13T06:48:55.869Z,89.53
2023-01-13T06:51:58.270Z,90.58
2023-01-13T06:55:00.676Z,90.21
2023-01-13T06:58:03.431Z,89.35
2023-01-13T07:01:06.052Z,88.72
2023-01-13T07:04:08.707Z,89.39
2023-01-13T07:07:12.480Z,89.98
2023-01-13T07:10:22.237Z,89.44
2023-01-13T07:13:43.450Z,90.99
2023-01-13T07:16:45.883Z,91.46
2023-01-13T07:19:48.462Z,90.88
2023-01-13T07:22:54.853Z,91.14
2023-01-13T07:25:58.777Z,91.59
2023-01-13T07:29:01.167Z,91.62
2023-01-13T07:32:03.821Z,92.68
2023-01-13T07:35:06.889Z,92.65
2023-01-13T07:38:09.423Z,92.68
2023-01-13T07:41:32.741Z,92.65
2023-01-13T07:44:35.174Z,92.23
2023-01-13T07:47:37.599Z,92.54
2023-01-13T07:50:41.108Z,91.73
2023-01-13T07:53:45.196Z,91.12
2023-01-13T07:56:47.647Z,91.10
2023-01-13T07:59:50.239Z,90.18
2023-01-13T08:02:52.671Z,89.93
2023-01-13T08:05:55.756Z,89.93
2023-01-13T08:08:58.648Z,89.88
2023-01-13T08:12:19.874Z,89.74
2023-01-13T08:15:22.715Z,89.76
2023-01-13T08:18:25.374Z,90.11
2023-01-13T08:21:27.778Z,90.29
2023-01-13T08:24:30.320Z,91.91
2023-01-13T08:27:33.928Z,91.27
2023-01-13T08:30:36.674Z,90.28
2023-01-13T08:33:39.808Z,90.42
2023-01-13T08:37:00.923Z,90.40
2023-01-13T08:40:18.528Z,91.44
2023-01-13T08:43:21.898Z,91.68
2023-01-13T08:46:24.249Z,90.96
2023-01-13T08:49:27.239Z,91.12
2023-01-13T08:52:30.369Z,91.06
2023-01-13T08:55:33.031Z,90.42
2023-01-13T08:58:35.707Z,90.98
2023-01-13T09:01:40.630Z,90.74
2023-01-13T09:04:55.512Z,89.90
2023-01-13T09:07:57.989Z,90.82
2023-01-13T09:11:00.521Z,91.77
2023-01-13T09:14:03.698Z,90.60
2023-01-13T09:17:07.646Z,90.39
2023-01-13T09:20:10.896Z,90.51
2023-01-13T09:23:14.304Z,90.82
2023-01-13T09:26:20.675Z,91.03
2023-01-13T09:29:23.276Z,90.31
2023-01-13T09:32:26.131Z,89.64
2023-01-13T09:35:28.490Z,89.51
2023-01-13T09:38:30.940Z,89.18
2023-01-13T09:42:00.353Z,88.93
2023-01-13T09:45:07.253Z,88.72
2023-01-13T09:48:15.684Z,89.85
2023-01-13T09:51:31.703Z,90.83
2023-01-13T09:54:41.346Z,89.11
2023-01-13T09:57:48.935Z,89.63
2023-01-13T10:01:06.483Z,89.32
2023-01-13T10:04:14.244Z,89.01
2023-01-13T10:07:16.947Z,89.03
2023-01-13T10:10:33.778Z,89.80
2023-01-13T10:13:36.255Z,90.06
2023-01-13T10:16:48.208Z,90.19
2023-01-13T10:20:04.670Z,89.58
2023-01-13T10:23:12.935Z,90.06
2023-01-13T10:26:41.931Z,90.55
2023-01-13T10:29:44.504Z,90.19
2023-01-13T10:32:58.681Z,90.87
2023-01-13T10:36:03.255Z,90.35
2023-01-13T10:39:14.595Z,90.44
2023-01-13T10:42:19.388Z,90.74
2023-01-13T10:45:25.718Z,91.31
2023-01-13T10:48:36.155Z,91.02
2023-01-13T10:51:43.633Z,90.79
2023-01-13T10:54:54.790Z,90.89
2023-01-13T10:57:57.603Z,90.73
2023-01-13T11:01:04.593Z,91.03
2023-01-13T11:04:28.061Z,90.88
2023-01-13T11:07:40.153Z,91.26
2023-01-13T11:10:47.605Z,91.71
2023-01-13T11:14:12.539Z,91.91
2023-01-13T11:17:19.949Z,91.63
2023-01-13T11:20:32.469Z,90.82
2023-01-13T11:23:47.362Z,91.20
2023-01-13T11:27:09.959Z,91.50
2023-01-13T11:30:17.990Z,90.86
2023-01-13T11:33:32.463Z,91.45
2023-01-13T11:36:48.845Z,91.03
2023-01-13T11:39:56.259Z,90.30
2023-01-13T11:43:14.191Z,90.57
2023-01-13T11:46:16.600Z,90.90
2023-01-13T11:49:31.060Z,90.67
2023-01-13T11:53:09.483Z,90.75
2023-01-13T11:56:49.162Z,90.54
2023-01-13T11:59:51.519Z,91.02
2023-01-13T12:02:58.117Z,90.78
2023-01-13T12:06:17.489Z,90.81
2023-01-13T12:09:48.777Z,90.21
2023-01-13T12:12:58.384Z,90.04
2023-01-13T12:16:20.815Z,89.89
2023-01-13T12:19:29.082Z,90.06
2023-01-13T12:22:35.295Z,89.92
2023-01-13T12:25:45.405Z,90.19
2023-01-13T12:28:59.330Z,89.67
2023-01-13T12:32:05.576Z,89.21
2023-01-13T12:35:35.254Z,88.18
2023-01-13T12:39:00.157Z,88.60
2023-01-13T12:42:46.005Z,88.44
2023-01-13T12:45:48.532Z,87.88
2023-01-13T12:48:59.629Z,88.14
2023-01-13T12:52:12.597Z,87.98
2023-01-13T12:55:28.757Z,88.26
2023-01-13T12:58:31.257Z,88.51
2023-01-13T13:01:37.716Z,88.11
2023-01-13T13:04:49.709Z,87.43
2023-01-13T13:08:04.972Z,88.27
2023-01-13T13:11:32.243Z,88.53
2023-01-13T13:14:37.452Z,88.73
2023-01-13T13:17:40.150Z,89.18
2023-01-13T13:21:10.569Z,88.83
2023-01-13T13:24:13.132Z,89.08
2023-01-13T13:28:09.056Z,89.34
2023-01-13T13:31:29.509Z,88.84
2023-01-13T13:34:42.491Z,88.59
2023-01-13T13:38:22.162Z,89.07
2023-01-13T13:41:44.865Z,88.05
2023-01-13T13:45:08.450Z,88.29
2023-01-13T13:48:26.083Z,87.27
2023-01-13T13:51:39.183Z,88.26
2023-01-13T13:54:47.924Z,87.25
2023-01-13T13:57:52.810Z,87.14
2023-01-13T14:00:56.995Z,87.46
2023-01-13T14:04:19.571Z,87.01
2023-01-13T14:07:22.123Z,86.92
2023-01-13T14:10:35.937Z,87.35
2023-01-13T14:13:38.469Z,85.90
2023-01-13T14:16:41.382Z,87.31
2023-01-13T14:19:47.725Z,88.01
2023-01-13T14:22:53.320Z,87.95
2023-01-13T14:26:13.051Z,87.65
2023-01-13T14:29:24.874Z,87.56
2023-01-13T14:32:36.558Z,87.45
2023-01-13T14:35:38.968Z,87.90
2023-01-13T14:38:43.771Z,88.08
2023-01-13T14:41:48.318Z,88.22
2023-01-13T14:44:51.605Z,88.04
2023-01-13T14:47:54.376Z,87.64
2023-01-13T14:50:57.155Z,87.65
2023-01-13T14:54:00.052Z,87.68
2023-01-13T14:57:27.675Z,88.04
2023-01-13T15:00:30.348Z,87.84
2023-01-13T15:03:42.182Z,87.28
2023-01-13T15:06:51.612Z,87.39
2023-01-13T15:09:57.226Z,87.33
2023-01-13T15:13:02.884Z,87.77
2023-01-13T15:16:14.261Z,88.56
2023-01-13T15:19:16.702Z,88.52
2023-01-13T15:22:19.067Z,87.20
2023-01-13T15:25:22.061Z,86.56
2023-01-13T15:28:26.607Z,86.38
2023-01-13T15:31:29.212Z,86.96
2023-01-13T15:34:31.617Z,86.53
2023-01-13T15:37:34.179Z,86.25
2023-01-13T15:40:40.989Z,85.25
2023-01-13T15:44:18.809Z,85.74
2023-01-13T15:47:24.884Z,86.48
2023-01-13T15:50:27.320Z,86.45
2023-01-13T15:53:29.920Z,86.08
2023-01-13T15:56:36.258Z,86.52
2023-01-13T15:59:38.684Z,86.52
2023-01-13T16:02:41.138Z,86.00
2023-01-13T16:05:44.575Z,86.61
2023-01-13T16:08:47.089Z,87.27
2023-01-13T16:11:49.568Z,86.58
2023-01-13T16:14:52.072Z,86.38
2023-01-13T16:17:57.977Z,86.69
2023-01-13T16:21:00.392Z,87.02
2023-01-13T16:24:02.832Z,86.38
2023-01-13T16:27:23.394Z,86.13
2023-01-13T16:30:29.510Z,86.49
2023-01-13T16:33:32.023Z,86.37
2023-01-13T16:36:35.990Z,87.06
2023-01-13T16:39:38.353Z,87.28
2023-01-13T16:42:40.692Z,87.23
2023-01-13T16:45:43.905Z,87.45
2023-01-13T16:48:47.104Z,86.83
2023-01-13T16:51:49.656Z,86.92
2023-01-13T16:54:52.215Z,85.91
2023-01-13T16:57:54.983Z,85.82
2023-01-13T17:00:57.600Z,86.42
2023-01-13T17:04:00.884Z,86.51
2023-01-13T17:07:06.062Z,86.74
2023-01-13T17:10:12.720Z,86.46
2023-01-13T17:13:17.076Z,87.00
2023-01-13T17:16:22.767Z,86.25
2023-01-13T17:19:25.843Z,86.46
2023-01-13T17:22:28.323Z,86.35
2023-01-13T17:25:30.892Z,86.16
2023-01-13T17:28:33.601Z,85.88
2023-01-13T17:31:36.625Z,85.66
2023-01-13T17:34:40.159Z,85.95
2023-01-13T17:37:42.544Z,86.40
2023-01-13T17:40:44.999Z,86.09
2023-01-13T17:43:48.369Z,86.02
2023-01-13T17:46:50.965Z,85.96
2023-01-13T17:49:53.496Z,86.19
2023-01-13T17:52:56.194Z,86.89
2023-01-13T17:55:58.669Z,86.41
2023-01-13T17:59:01.089Z,86.21
2023-01-13T18:02:04.824Z,85.41
2023-01-13T18:05:07.803Z,86.17
2023-01-13T18:08:10.648Z,86.69
2023-01-13T18:11:14.265Z,84.49
2023-01-13T18:14:17.827Z,85.65
2023-01-13T18:17:20.547Z,85.70
2023-01-13T18:20:46.324Z,85.88
2023-01-13T18:24:08.040Z,86.23
2023-01-13T18:27:18.908Z,86.39
2023-01-13T18:30:23.483Z,86.16
2023-01-13T18:33:25.981Z,87.22
2023-01-13T18:36:28.553Z,85.84
2023-01-13T18:39:30.996Z,86.38
2023-01-13T18:42:51.565Z,86.41
2023-01-13T18:45:54.244Z,86.21
2023-01-13T18:48:56.848Z,86.37
2023-01-13T18:51:59.401Z,85.97
2023-01-13T18:55:01.986Z,86.41
2023-01-13T18:58:04.773Z,86.09
2023-01-13T19:01:07.305Z,85.82
2023-01-13T19:04:15.598Z,86.18
2023-01-13T19:07:23.637Z,86.25
2023-01-13T19:10:31.738Z,85.16
2023-01-13T19:13:37.580Z,84.93
2023-01-13T19:16:40.027Z,86.03
2023-01-13T19:19:44.595Z,86.17
2023-01-13T19:22:53.904Z,85.77
2023-01-13T19:26:12.877Z,86.07
2023-01-13T19:29:15.593Z,85.99
2023-01-13T19:32:18.396Z,85.28
2023-01-13T19:35:21.136Z,84.78
2023-01-13T19:38:24.817Z,85.17
2023-01-13T19:41:45.721Z,84.83
2023-01-13T19:45:07.148Z,84.15
2023-01-13T19:48:09.644Z,84.61
2023-01-13T19:51:14.396Z,85.33
2023-01-13T19:54:16.865Z,84.53
2023-01-13T19:57:20.310Z,84.89
2023-01-13T20:00:24.387Z,85.11
2023-01-13T20:03:31.109Z,84.39
2023-01-13T20:06:33.588Z,85.10
2023-01-13T20:09:36.144Z,84.63
2023-01-13T20:12:39.061Z,84.68
2023-01-13T20:15:42.781Z,84.53
2023-01-13T20:18:50.272Z,84.97
2023-01-13T20:21:52.623Z,83.80
2023-01-13T20:24:55.364Z,84.82
2023-01-13T20:27:58.751Z,85.87
2023-01-13T20:31:01.209Z,85.25
2023-01-13T20:34:03.901Z,84.91
2023-01-13T20:37:06.682Z,85.46
2023-01-13T20:40:12.995Z,85.36
2023-01-13T20:43:17.841Z,84.65
2023-01-13T20:46:21.567Z,85.26
2023-01-13T20:49:26.395Z,85.34
2023-01-13T20:52:29.356Z,85.67
2023-01-13T20:55:31.777Z,85.40
2023-01-13T20:58:34.741Z,85.83
2023-01-13T21:01:37.916Z,85.32
2023-01-13T21:04:41.011Z,86.33
2023-01-13T21:07:43.510Z,85.24
2023-01-13T21:10:46.013Z,86.33
2023-01-13T21:14:06.624Z,86.17
2023-01-13T21:17:31.275Z,86.18
2023-01-13T21:20:36.979Z,85.98
2023-01-13T21:23:44.223Z,86.18
2023-01-13T21:26:48.462Z,86.16
2023-01-13T21:29:51.150Z,87.22
2023-01-13T21:32:53.468Z,87.27
2023-01-13T21:35:56.013Z,87.46
2023-01-13T21:38:59.356Z,86.13
2023-01-13T21:42:20.196Z,86.84
2023-01-13T21:45:41.522Z,86.77
2023-01-13T21:48:43.949Z,86.89
2023-01-13T21:51:46.356Z,87.06
2023-01-13T21:55:07.115Z,86.54
2023-01-13T21:58:12.314Z,84.88
2023-01-13T22:01:15.587Z,85.49
2023-01-13T22:04:22.119Z,85.97
2023-01-13T22:07:24.451Z,86.01
2023-01-13T22:10:30.189Z,86.58
2023-01-13T22:13:50.959Z,86.26
2023-01-13T22:16:54.136Z,86.69
2023-01-13T22:19:57.813Z,86.41
2023-01-13T22:23:00.322Z,86.05
2023-01-13T22:26:04.237Z,86.14
2023-01-13T22:29:06.605Z,86.98
2023-01-13T22:32:09.362Z,86.37
2023-01-13T22:35:13.567Z,85.90
2023-01-13T22:38:16.007Z,85.28
2023-01-13T22:41:18.616Z,86.43
2023-01-13T22:44:21.942Z,86.28
2023-01-13T22:47:24.309Z,86.88
2023-01-13T22:50:26.865Z,86.46
2023-01-13T22:53:29.502Z,86.49
2023-01-13T22:56:31.921Z,85.02
2023-01-13T22:59:34.529Z,85.90
2023-01-13T23:02:38.270Z,86.51
2023-01-13T23:05:41.649Z,86.92
2023-01-13T23:08:44.478Z,86.64
2023-01-13T23:11:47.929Z,86.78
2023-01-13T23:14:50.560Z,86.81
2023-01-13T23:17:53.552Z,85.62
2023-01-13T23:20:56.428Z,87.33
2023-01-13T23:23:59.320Z,86.83
2023-01-13T23:27:01.711Z,87.95
2023-01-13T23:30:08.548Z,87.67
2023-01-13T23:33:11.306Z,87.87
2023-01-13T23:36:17.426Z,88.00
2023-01-13T23:39:19.880Z,86.39
2023-01-13T23:42:22.273Z,86.85
2023-01-13T23:45:24.744Z,87.02
2023-01-13T23:48:27.121Z,86.87
2023-01-13T23:51:30.261Z,87.62
2023-01-13T23:54:32.667Z,88.30
2023-01-13T23:57:35.128Z,88.67
